sensor_id;sensor_type;location;lat;lon;timestamp;pressure;altitude;pressure_sealevel;temperature
41593;BMP180;28026;48.562;14.440;2023-05-23T00:00:27;93448.00;;;25.10
41593;BMP180;28026;48.562;14.440;2023-05-23T00:02:58;93447.00;;;25.10
41593;BMP180;28026;48.562;14.440;2023-05-23T00:05:30;93447.00;;;25.10
41593;BMP180;28026;48.562;14.440;2023-05-23T00:08:01;93443.00;;;25.00
41593;BMP180;28026;48.562;14.440;2023-05-23T00:10:32;93445.00;;;25.00
41593;BMP180;28026;48.562;14.440;2023-05-23T00:13:03;93435.00;;;25.00
41593;BMP180;28026;48.562;14.440;2023-05-23T00:15:35;93433.00;;;25.00
41593;BMP180;28026;48.562;14.440;2023-05-23T00:18:10;93430.00;;;24.90
41593;BMP180;28026;48.562;14.440;2023-05-23T00:20:41;93428.00;;;24.90
41593;BMP180;28026;48.562;14.440;2023-05-23T00:23:12;93428.00;;;24.90
41593;BMP180;28026;48.562;14.440;2023-05-23T00:25:48;93427.00;;;24.70
41593;BMP180;28026;48.562;14.440;2023-05-23T00:28:22;93427.00;;;24.70
41593;BMP180;28026;48.562;14.440;2023-05-23T00:30:53;93433.00;;;24.60
41593;BMP180;28026;48.562;14.440;2023-05-23T00:33:23;93431.00;;;24.50
41593;BMP180;28026;48.562;14.440;2023-05-23T00:35:54;93432.00;;;24.50
41593;BMP180;28026;48.562;14.440;2023-05-23T00:38:25;93438.00;;;24.50
41593;BMP180;28026;48.562;14.440;2023-05-23T00:40:57;93437.00;;;24.50
41593;BMP180;28026;48.562;14.440;2023-05-23T00:43:28;93436.00;;;24.50
41593;BMP180;28026;48.562;14.440;2023-05-23T00:46:00;93430.00;;;24.50
41593;BMP180;28026;48.562;14.440;2023-05-23T00:48:31;93434.00;;;24.50
41593;BMP180;28026;48.562;14.440;2023-05-23T00:51:03;93440.00;;;24.50
41593;BMP180;28026;48.562;14.440;2023-05-23T00:53:34;93438.00;;;24.50
41593;BMP180;28026;48.562;14.440;2023-05-23T00:56:06;93432.00;;;24.40
41593;BMP180;28026;48.562;14.440;2023-05-23T00:58:38;93439.00;;;24.40
41593;BMP180;28026;48.562;14.440;2023-05-23T01:01:10;93442.00;;;24.40
41593;BMP180;28026;48.562;14.440;2023-05-23T01:03:41;93437.00;;;24.40
41593;BMP180;28026;48.562;14.440;2023-05-23T01:06:15;93443.00;;;24.30
41593;BMP180;28026;48.562;14.440;2023-05-23T01:08:47;93436.00;;;24.30
41593;BMP180;28026;48.562;14.440;2023-05-23T01:11:41;93440.00;;;24.30
41593;BMP180;28026;48.562;14.440;2023-05-23T01:14:34;93438.00;;;24.30
41593;BMP180;28026;48.562;14.440;2023-05-23T01:17:27;93439.00;;;24.30
41593;BMP180;28026;48.562;14.440;2023-05-23T01:20:21;93439.00;;;24.20
41593;BMP180;28026;48.562;14.440;2023-05-23T01:28:36;93443.00;;;24.10
41593;BMP180;28026;48.562;14.440;2023-05-23T01:31:11;93434.00;;;24.10
41593;BMP180;28026;48.562;14.440;2023-05-23T01:33:43;93433.00;;;24.10
41593;BMP180;28026;48.562;14.440;2023-05-23T01:36:16;93448.00;;;24.10
41593;BMP180;28026;48.562;14.440;2023-05-23T01:38:46;93438.00;;;24.10
41593;BMP180;28026;48.562;14.440;2023-05-23T01:41:17;93439.00;;;24.00
41593;BMP180;28026;48.562;14.440;2023-05-23T01:43:48;93432.00;;;24.00
41593;BMP180;28026;48.562;14.440;2023-05-23T01:46:21;93436.00;;;24.00
41593;BMP180;28026;48.562;14.440;2023-05-23T01:48:56;93426.00;;;23.90
41593;BMP180;28026;48.562;14.440;2023-05-23T01:51:28;93437.00;;;23.90
41593;BMP180;28026;48.562;14.440;2023-05-23T01:54:00;93441.00;;;23.90
41593;BMP180;28026;48.562;14.440;2023-05-23T01:56:31;93439.00;;;23.90
41593;BMP180;28026;48.562;14.440;2023-05-23T01:59:03;93439.00;;;23.90
41593;BMP180;28026;48.562;14.440;2023-05-23T02:01:34;93443.00;;;23.90
41593;BMP180;28026;48.562;14.440;2023-05-23T02:04:05;93437.00;;;23.90
41593;BMP180;28026;48.562;14.440;2023-05-23T02:06:36;93430.00;;;23.90
41593;BMP180;28026;48.562;14.440;2023-05-23T02:09:07;93433.00;;;23.90
41593;BMP180;28026;48.562;14.440;2023-05-23T02:11:39;93437.00;;;23.80
41593;BMP180;28026;48.562;14.440;2023-05-23T02:14:10;93437.00;;;23.80
41593;BMP180;28026;48.562;14.440;2023-05-23T02:16:42;93441.00;;;23.80
41593;BMP180;28026;48.562;14.440;2023-05-23T02:19:13;93432.00;;;23.80
41593;BMP180;28026;48.562;14.440;2023-05-23T02:21:44;93438.00;;;23.80
41593;BMP180;28026;48.562;14.440;2023-05-23T02:24:15;93429.00;;;23.80
41593;BMP180;28026;48.562;14.440;2023-05-23T02:26:45;93439.00;;;23.70
41593;BMP180;28026;48.562;14.440;2023-05-23T02:29:16;93429.00;;;23.70
41593;BMP180;28026;48.562;14.440;2023-05-23T02:31:47;93434.00;;;23.70
41593;BMP180;28026;48.562;14.440;2023-05-23T02:34:18;93423.00;;;23.70
41593;BMP180;28026;48.562;14.440;2023-05-23T02:36:49;93429.00;;;23.70
41593;BMP180;28026;48.562;14.440;2023-05-23T02:39:21;93424.00;;;23.70
41593;BMP180;28026;48.562;14.440;2023-05-23T02:41:51;93428.00;;;23.60
41593;BMP180;28026;48.562;14.440;2023-05-23T02:44:22;93436.00;;;23.60
41593;BMP180;28026;48.562;14.440;2023-05-23T02:46:53;93430.00;;;23.60
41593;BMP180;28026;48.562;14.440;2023-05-23T02:49:24;93438.00;;;23.60
41593;BMP180;28026;48.562;14.440;2023-05-23T02:51:55;93437.00;;;23.50
41593;BMP180;28026;48.562;14.440;2023-05-23T02:54:26;93432.00;;;23.50
41593;BMP180;28026;48.562;14.440;2023-05-23T02:56:57;93434.00;;;23.40
41593;BMP180;28026;48.562;14.440;2023-05-23T02:59:28;93437.00;;;23.40
41593;BMP180;28026;48.562;14.440;2023-05-23T03:02:00;93434.00;;;23.40
41593;BMP180;28026;48.562;14.440;2023-05-23T03:04:31;93425.00;;;23.30
41593;BMP180;28026;48.562;14.440;2023-05-23T03:07:01;93431.00;;;23.30
41593;BMP180;28026;48.562;14.440;2023-05-23T03:09:32;93425.00;;;23.30
41593;BMP180;28026;48.562;14.440;2023-05-23T03:12:05;93426.00;;;23.30
41593;BMP180;28026;48.562;14.440;2023-05-23T03:14:36;93418.00;;;23.30
41593;BMP180;28026;48.562;14.440;2023-05-23T03:17:07;93421.00;;;23.30
41593;BMP180;28026;48.562;14.440;2023-05-23T03:19:37;93420.00;;;23.30
41593;BMP180;28026;48.562;14.440;2023-05-23T03:22:08;93426.00;;;23.30
41593;BMP180;28026;48.562;14.440;2023-05-23T03:24:39;93418.00;;;23.20
41593;BMP180;28026;48.562;14.440;2023-05-23T03:27:10;93425.00;;;23.20
41593;BMP180;28026;48.562;14.440;2023-05-23T03:29:41;93426.00;;;23.20
41593;BMP180;28026;48.562;14.440;2023-05-23T03:32:12;93418.00;;;23.20
41593;BMP180;28026;48.562;14.440;2023-05-23T03:34:43;93421.00;;;23.20
41593;BMP180;28026;48.562;14.440;2023-05-23T03:37:13;93425.00;;;23.20
41593;BMP180;28026;48.562;14.440;2023-05-23T03:39:44;93420.00;;;23.20
41593;BMP180;28026;48.562;14.440;2023-05-23T03:42:17;93423.00;;;23.20
41593;BMP180;28026;48.562;14.440;2023-05-23T03:44:48;93425.00;;;23.20
41593;BMP180;28026;48.562;14.440;2023-05-23T03:47:19;93430.00;;;23.20
41593;BMP180;28026;48.562;14.440;2023-05-23T03:49:50;93427.00;;;23.20
41593;BMP180;28026;48.562;14.440;2023-05-23T03:52:21;93425.00;;;23.20
41593;BMP180;28026;48.562;14.440;2023-05-23T03:54:53;93430.00;;;23.20
41593;BMP180;28026;48.562;14.440;2023-05-23T03:57:24;93426.00;;;23.20
41593;BMP180;28026;48.562;14.440;2023-05-23T03:59:54;93441.00;;;23.20
41593;BMP180;28026;48.562;14.440;2023-05-23T04:02:25;93428.00;;;23.20
41593;BMP180;28026;48.562;14.440;2023-05-23T04:04:56;93438.00;;;23.30
41593;BMP180;28026;48.562;14.440;2023-05-23T04:07:27;93435.00;;;23.30
41593;BMP180;28026;48.562;14.440;2023-05-23T04:09:58;93424.00;;;23.30
41593;BMP180;28026;48.562;14.440;2023-05-23T04:12:30;93428.00;;;23.30
41593;BMP180;28026;48.562;14.440;2023-05-23T04:15:01;93438.00;;;23.30
41593;BMP180;28026;48.562;14.440;2023-05-23T04:17:33;93428.00;;;23.30
41593;BMP180;28026;48.562;14.440;2023-05-23T04:20:08;93419.00;;;23.30
41593;BMP180;28026;48.562;14.440;2023-05-23T04:22:40;93422.00;;;23.40
41593;BMP180;28026;48.562;14.440;2023-05-23T04:25:11;93414.00;;;23.50
41593;BMP180;28026;48.562;14.440;2023-05-23T04:27:41;93407.00;;;23.50
41593;BMP180;28026;48.562;14.440;2023-05-23T04:30:13;93401.00;;;23.60
41593;BMP180;28026;48.562;14.440;2023-05-23T04:32:46;93408.00;;;23.60
41593;BMP180;28026;48.562;14.440;2023-05-23T04:35:16;93420.00;;;23.60
41593;BMP180;28026;48.562;14.440;2023-05-23T04:37:47;93425.00;;;23.60
41593;BMP180;28026;48.562;14.440;2023-05-23T04:40:18;93422.00;;;23.60
41593;BMP180;28026;48.562;14.440;2023-05-23T04:42:49;93422.00;;;23.60
41593;BMP180;28026;48.562;14.440;2023-05-23T04:45:23;93419.00;;;23.70
41593;BMP180;28026;48.562;14.440;2023-05-23T04:47:54;93418.00;;;23.70
41593;BMP180;28026;48.562;14.440;2023-05-23T04:50:25;93426.00;;;23.90
41593;BMP180;28026;48.562;14.440;2023-05-23T04:52:58;93424.00;;;24.00
41593;BMP180;28026;48.562;14.440;2023-05-23T04:55:29;93430.00;;;24.00
41593;BMP180;28026;48.562;14.440;2023-05-23T04:57:59;93424.00;;;24.10
41593;BMP180;28026;48.562;14.440;2023-05-23T05:00:30;93416.00;;;24.20
41593;BMP180;28026;48.562;14.440;2023-05-23T05:03:01;93429.00;;;24.20
41593;BMP180;28026;48.562;14.440;2023-05-23T05:05:32;93423.00;;;24.20
41593;BMP180;28026;48.562;14.440;2023-05-23T05:08:03;93425.00;;;24.30
41593;BMP180;28026;48.562;14.440;2023-05-23T05:10:34;93426.00;;;24.30
41593;BMP180;28026;48.562;14.440;2023-05-23T05:13:05;93432.00;;;24.30
41593;BMP180;28026;48.562;14.440;2023-05-23T05:15:35;93424.00;;;24.40
41593;BMP180;28026;48.562;14.440;2023-05-23T05:18:06;93421.00;;;24.40
41593;BMP180;28026;48.562;14.440;2023-05-23T05:20:37;93428.00;;;24.30
41593;BMP180;28026;48.562;14.440;2023-05-23T05:23:08;93419.00;;;24.40
41593;BMP180;28026;48.562;14.440;2023-05-23T05:25:39;93422.00;;;24.50
41593;BMP180;28026;48.562;14.440;2023-05-23T05:28:10;93429.00;;;24.60
41593;BMP180;28026;48.562;14.440;2023-05-23T05:30:41;93426.00;;;24.60
41593;BMP180;28026;48.562;14.440;2023-05-23T05:33:12;93421.00;;;24.70
41593;BMP180;28026;48.562;14.440;2023-05-23T05:35:44;93427.00;;;24.70
41593;BMP180;28026;48.562;14.440;2023-05-23T05:38:14;93423.00;;;24.70
41593;BMP180;28026;48.562;14.440;2023-05-23T05:40:45;93426.00;;;24.80
41593;BMP180;28026;48.562;14.440;2023-05-23T05:43:16;93423.00;;;24.90
41593;BMP180;28026;48.562;14.440;2023-05-23T05:45:47;93426.00;;;24.90
41593;BMP180;28026;48.562;14.440;2023-05-23T05:48:18;93428.00;;;24.90
41593;BMP180;28026;48.562;14.440;2023-05-23T05:50:49;93426.00;;;25.00
41593;BMP180;28026;48.562;14.440;2023-05-23T05:53:20;93417.00;;;25.10
41593;BMP180;28026;48.562;14.440;2023-05-23T05:55:53;93424.00;;;25.10
41593;BMP180;28026;48.562;14.440;2023-05-23T05:58:24;93426.00;;;25.10
41593;BMP180;28026;48.562;14.440;2023-05-23T06:00:55;93429.00;;;25.20
41593;BMP180;28026;48.562;14.440;2023-05-23T06:03:26;93427.00;;;25.10
41593;BMP180;28026;48.562;14.440;2023-05-23T06:05:57;93429.00;;;25.00
41593;BMP180;28026;48.562;14.440;2023-05-23T06:08:29;93429.00;;;25.00
41593;BMP180;28026;48.562;14.440;2023-05-23T06:10:59;93419.00;;;25.00
41593;BMP180;28026;48.562;14.440;2023-05-23T06:13:30;93426.00;;;24.90
41593;BMP180;28026;48.562;14.440;2023-05-23T06:16:01;93428.00;;;24.90
41593;BMP180;28026;48.562;14.440;2023-05-23T06:18:32;93424.00;;;24.90
41593;BMP180;28026;48.562;14.440;2023-05-23T06:21:03;93430.00;;;24.90
41593;BMP180;28026;48.562;14.440;2023-05-23T06:23:34;93427.00;;;25.00
41593;BMP180;28026;48.562;14.440;2023-05-23T06:26:05;93437.00;;;25.00
41593;BMP180;28026;48.562;14.440;2023-05-23T06:28:41;93447.00;;;25.00
41593;BMP180;28026;48.562;14.440;2023-05-23T06:31:12;93437.00;;;25.10
41593;BMP180;28026;48.562;14.440;2023-05-23T06:33:43;93443.00;;;25.10
41593;BMP180;28026;48.562;14.440;2023-05-23T06:36:14;93433.00;;;25.10
41593;BMP180;28026;48.562;14.440;2023-05-23T06:38:46;93438.00;;;25.10
41593;BMP180;28026;48.562;14.440;2023-05-23T06:41:17;93430.00;;;25.10
41593;BMP180;28026;48.562;14.440;2023-05-23T06:43:48;93438.00;;;25.20
41593;BMP180;28026;48.562;14.440;2023-05-23T06:46:19;93429.00;;;25.20
41593;BMP180;28026;48.562;14.440;2023-05-23T06:48:49;93437.00;;;25.20
41593;BMP180;28026;48.562;14.440;2023-05-23T06:51:20;93439.00;;;25.20
41593;BMP180;28026;48.562;14.440;2023-05-23T06:53:52;93435.00;;;25.20
41593;BMP180;28026;48.562;14.440;2023-05-23T06:56:23;93443.00;;;25.20
41593;BMP180;28026;48.562;14.440;2023-05-23T06:58:54;93438.00;;;25.20
41593;BMP180;28026;48.562;14.440;2023-05-23T07:01:25;93444.00;;;25.30
41593;BMP180;28026;48.562;14.440;2023-05-23T07:03:56;93441.00;;;25.40
41593;BMP180;28026;48.562;14.440;2023-05-23T07:06:27;93439.00;;;25.40
41593;BMP180;28026;48.562;14.440;2023-05-23T07:08:58;93440.00;;;25.40
41593;BMP180;28026;48.562;14.440;2023-05-23T07:11:29;93428.00;;;25.40
41593;BMP180;28026;48.562;14.440;2023-05-23T07:14:00;93430.00;;;25.50
41593;BMP180;28026;48.562;14.440;2023-05-23T07:16:31;93430.00;;;25.60
41593;BMP180;28026;48.562;14.440;2023-05-23T07:19:02;93434.00;;;25.70
41593;BMP180;28026;48.562;14.440;2023-05-23T07:21:34;93440.00;;;25.70
41593;BMP180;28026;48.562;14.440;2023-05-23T07:24:05;93439.00;;;25.70
41593;BMP180;28026;48.562;14.440;2023-05-23T07:26:36;93438.00;;;25.60
41593;BMP180;28026;48.562;14.440;2023-05-23T07:29:07;93435.00;;;25.60
41593;BMP180;28026;48.562;14.440;2023-05-23T07:31:38;93433.00;;;25.70
41593;BMP180;28026;48.562;14.440;2023-05-23T07:34:09;93431.00;;;25.80
41593;BMP180;28026;48.562;14.440;2023-05-23T07:36:39;93431.00;;;26.00
41593;BMP180;28026;48.562;14.440;2023-05-23T07:39:12;93428.00;;;26.30
41593;BMP180;28026;48.562;14.440;2023-05-23T07:41:44;93428.00;;;26.70
41593;BMP180;28026;48.562;14.440;2023-05-23T07:44:17;93432.00;;;26.90
41593;BMP180;28026;48.562;14.440;2023-05-23T07:46:48;93437.00;;;26.90
41593;BMP180;28026;48.562;14.440;2023-05-23T07:49:19;93433.00;;;27.10
41593;BMP180;28026;48.562;14.440;2023-05-23T07:51:50;93435.00;;;27.20
41593;BMP180;28026;48.562;14.440;2023-05-23T07:54:21;93447.00;;;27.30
41593;BMP180;28026;48.562;14.440;2023-05-23T07:56:52;93445.00;;;27.30
41593;BMP180;28026;48.562;14.440;2023-05-23T07:59:24;93439.00;;;27.50
41593;BMP180;28026;48.562;14.440;2023-05-23T08:01:55;93439.00;;;27.80
41593;BMP180;28026;48.562;14.440;2023-05-23T08:04:25;93444.00;;;28.10
41593;BMP180;28026;48.562;14.440;2023-05-23T08:06:58;93445.00;;;28.10
41593;BMP180;28026;48.562;14.440;2023-05-23T08:09:29;93440.00;;;28.10
41593;BMP180;28026;48.562;14.440;2023-05-23T08:12:00;93444.00;;;28.20
41593;BMP180;28026;48.562;14.440;2023-05-23T08:14:31;93447.00;;;28.30
41593;BMP180;28026;48.562;14.440;2023-05-23T08:17:03;93457.00;;;28.30
41593;BMP180;28026;48.562;14.440;2023-05-23T08:19:34;93456.00;;;28.30
41593;BMP180;28026;48.562;14.440;2023-05-23T08:22:05;93459.00;;;28.20
41593;BMP180;28026;48.562;14.440;2023-05-23T08:24:36;93462.00;;;28.40
41593;BMP180;28026;48.562;14.440;2023-05-23T08:27:07;93448.00;;;28.60
41593;BMP180;28026;48.562;14.440;2023-05-23T08:29:38;93455.00;;;28.70
41593;BMP180;28026;48.562;14.440;2023-05-23T08:32:10;93455.00;;;28.90
41593;BMP180;28026;48.562;14.440;2023-05-23T08:34:41;93449.00;;;29.10
41593;BMP180;28026;48.562;14.440;2023-05-23T08:37:12;93446.00;;;29.30
41593;BMP180;28026;48.562;14.440;2023-05-23T08:39:43;93446.00;;;29.40
41593;BMP180;28026;48.562;14.440;2023-05-23T08:42:14;93449.00;;;29.50
41593;BMP180;28026;48.562;14.440;2023-05-23T08:44:45;93451.00;;;29.60
41593;BMP180;28026;48.562;14.440;2023-05-23T08:47:16;93451.00;;;29.80
41593;BMP180;28026;48.562;14.440;2023-05-23T08:49:53;93447.00;;;30.10
41593;BMP180;28026;48.562;14.440;2023-05-23T08:52:28;93454.00;;;30.30
41593;BMP180;28026;48.562;14.440;2023-05-23T08:55:03;93447.00;;;30.50
41593;BMP180;28026;48.562;14.440;2023-05-23T08:57:37;93450.00;;;30.70
41593;BMP180;28026;48.562;14.440;2023-05-23T09:00:12;93444.00;;;30.60
41593;BMP180;28026;48.562;14.440;2023-05-23T09:02:46;93451.00;;;30.60
41593;BMP180;28026;48.562;14.440;2023-05-23T09:05:17;93454.00;;;30.60
41593;BMP180;28026;48.562;14.440;2023-05-23T09:07:48;93455.00;;;30.60
41593;BMP180;28026;48.562;14.440;2023-05-23T09:10:23;93454.00;;;30.50
41593;BMP180;28026;48.562;14.440;2023-05-23T09:12:54;93451.00;;;30.20
41593;BMP180;28026;48.562;14.440;2023-05-23T09:15:26;93452.00;;;29.90
41593;BMP180;28026;48.562;14.440;2023-05-23T09:18:01;93447.00;;;29.60
41593;BMP180;28026;48.562;14.440;2023-05-23T09:20:32;93446.00;;;29.60
41593;BMP180;28026;48.562;14.440;2023-05-23T09:23:05;93450.00;;;29.50
41593;BMP180;28026;48.562;14.440;2023-05-23T09:25:45;93450.00;;;29.60
41593;BMP180;28026;48.562;14.440;2023-05-23T09:28:17;93432.00;;;29.70
41593;BMP180;28026;48.562;14.440;2023-05-23T09:30:56;93446.00;;;29.70
41593;BMP180;28026;48.562;14.440;2023-05-23T09:33:45;93447.00;;;29.70
41593;BMP180;28026;48.562;14.440;2023-05-23T09:36:19;93434.00;;;29.80
41593;BMP180;28026;48.562;14.440;2023-05-23T09:38:50;93435.00;;;30.10
41593;BMP180;28026;48.562;14.440;2023-05-23T09:41:24;93432.00;;;30.30
41593;BMP180;28026;48.562;14.440;2023-05-23T09:43:55;93439.00;;;30.40
41593;BMP180;28026;48.562;14.440;2023-05-23T09:46:28;93434.00;;;30.40
41593;BMP180;28026;48.562;14.440;2023-05-23T09:49:00;93445.00;;;30.30
41593;BMP180;28026;48.562;14.440;2023-05-23T09:51:30;93435.00;;;30.20
41593;BMP180;28026;48.562;14.440;2023-05-23T09:54:02;93433.00;;;30.10
41593;BMP180;28026;48.562;14.440;2023-05-23T09:56:36;93439.00;;;30.10
41593;BMP180;28026;48.562;14.440;2023-05-23T09:59:14;93428.00;;;30.30
41593;BMP180;28026;48.562;14.440;2023-05-23T10:01:51;93424.00;;;30.60
41593;BMP180;28026;48.562;14.440;2023-05-23T10:04:30;93445.00;;;30.70
41593;BMP180;28026;48.562;14.440;2023-05-23T10:07:13;93447.00;;;30.70
41593;BMP180;28026;48.562;14.440;2023-05-23T10:10:06;93450.00;;;30.70
41593;BMP180;28026;48.562;14.440;2023-05-23T10:12:48;93451.00;;;30.70
41593;BMP180;28026;48.562;14.440;2023-05-23T10:15:29;93452.00;;;30.90
41593;BMP180;28026;48.562;14.440;2023-05-23T10:18:11;93440.00;;;31.10
41593;BMP180;28026;48.562;14.440;2023-05-23T10:20:53;93437.00;;;31.40
41593;BMP180;28026;48.562;14.440;2023-05-23T10:23:32;93440.00;;;31.50
41593;BMP180;28026;48.562;14.440;2023-05-23T10:26:04;93435.00;;;31.60
41593;BMP180;28026;48.562;14.440;2023-05-23T10:28:36;93437.00;;;31.60
41593;BMP180;28026;48.562;14.440;2023-05-23T10:31:09;93429.00;;;31.80
41593;BMP180;28026;48.562;14.440;2023-05-23T10:33:55;93427.00;;;31.80
41593;BMP180;28026;48.562;14.440;2023-05-23T10:37:04;93440.00;;;31.60
41593;BMP180;28026;48.562;14.440;2023-05-23T10:40:02;93420.00;;;31.50
41593;BMP180;28026;48.562;14.440;2023-05-23T10:42:53;93434.00;;;31.70
41593;BMP180;28026;48.562;14.440;2023-05-23T10:45:41;93429.00;;;31.80
41593;BMP180;28026;48.562;14.440;2023-05-23T10:48:32;93412.00;;;31.80
41593;BMP180;28026;48.562;14.440;2023-05-23T10:51:10;93426.00;;;31.60
41593;BMP180;28026;48.562;14.440;2023-05-23T10:53:45;93421.00;;;31.70
41593;BMP180;28026;48.562;14.440;2023-05-23T10:56:23;93425.00;;;31.80
41593;BMP180;28026;48.562;14.440;2023-05-23T10:58:55;93421.00;;;32.00
41593;BMP180;28026;48.562;14.440;2023-05-23T11:01:28;93420.00;;;32.00
41593;BMP180;28026;48.562;14.440;2023-05-23T11:04:04;93427.00;;;32.20
41593;BMP180;28026;48.562;14.440;2023-05-23T11:06:42;93420.00;;;32.30
41593;BMP180;28026;48.562;14.440;2023-05-23T11:09:17;93416.00;;;32.20
41593;BMP180;28026;48.562;14.440;2023-05-23T11:20:05;93404.00;;;32.10
41593;BMP180;28026;48.562;14.440;2023-05-23T11:22:36;93413.00;;;32.20
41593;BMP180;28026;48.562;14.440;2023-05-23T11:25:10;93430.00;;;32.20
41593;BMP180;28026;48.562;14.440;2023-05-23T11:27:45;93415.00;;;32.30
41593;BMP180;28026;48.562;14.440;2023-05-23T11:30:17;93413.00;;;32.40
41593;BMP180;28026;48.562;14.440;2023-05-23T11:32:53;93415.00;;;32.40
41593;BMP180;28026;48.562;14.440;2023-05-23T11:35:26;93417.00;;;32.20
41593;BMP180;28026;48.562;14.440;2023-05-23T11:37:57;93423.00;;;32.20
41593;BMP180;28026;48.562;14.440;2023-05-23T11:40:33;93414.00;;;32.40
41593;BMP180;28026;48.562;14.440;2023-05-23T11:43:13;93422.00;;;32.50
41593;BMP180;28026;48.562;14.440;2023-05-23T11:45:45;93419.00;;;32.60
41593;BMP180;28026;48.562;14.440;2023-05-23T11:48:16;93416.00;;;32.40
41593;BMP180;28026;48.562;14.440;2023-05-23T11:50:50;93416.00;;;32.60
41593;BMP180;28026;48.562;14.440;2023-05-23T11:53:26;93410.00;;;32.40
41593;BMP180;28026;48.562;14.440;2023-05-23T11:56:00;93425.00;;;32.10
41593;BMP180;28026;48.562;14.440;2023-05-23T11:58:37;93424.00;;;32.10
41593;BMP180;28026;48.562;14.440;2023-05-23T12:01:11;93452.00;;;32.30
41593;BMP180;28026;48.562;14.440;2023-05-23T12:03:48;93458.00;;;32.70
41593;BMP180;28026;48.562;14.440;2023-05-23T12:06:21;93459.00;;;32.80
41593;BMP180;28026;48.562;14.440;2023-05-23T12:08:54;93453.00;;;32.80
41593;BMP180;28026;48.562;14.440;2023-05-23T12:11:25;93450.00;;;32.60
41593;BMP180;28026;48.562;14.440;2023-05-23T12:13:56;93455.00;;;32.30
41593;BMP180;28026;48.562;14.440;2023-05-23T12:16:29;93450.00;;;32.10
41593;BMP180;28026;48.562;14.440;2023-05-23T12:19:03;93465.00;;;31.80
41593;BMP180;28026;48.562;14.440;2023-05-23T12:21:46;93473.00;;;31.60
41593;BMP180;28026;48.562;14.440;2023-05-23T12:24:20;93476.00;;;31.20
41593;BMP180;28026;48.562;14.440;2023-05-23T12:26:54;93487.00;;;30.90
41593;BMP180;28026;48.562;14.440;2023-05-23T12:29:33;93489.00;;;30.50
41593;BMP180;28026;48.562;14.440;2023-05-23T12:32:06;93488.00;;;30.20
41593;BMP180;28026;48.562;14.440;2023-05-23T12:34:41;93497.00;;;29.90
41593;BMP180;28026;48.562;14.440;2023-05-23T12:37:12;93502.00;;;29.60
41593;BMP180;28026;48.562;14.440;2023-05-23T12:39:44;93518.00;;;29.40
41593;BMP180;28026;48.562;14.440;2023-05-23T12:42:15;93562.00;;;29.10
41593;BMP180;28026;48.562;14.440;2023-05-23T12:44:50;93551.00;;;28.80
41593;BMP180;28026;48.562;14.440;2023-05-23T12:47:23;93551.00;;;28.40
41593;BMP180;28026;48.562;14.440;2023-05-23T12:49:53;93540.00;;;28.00
41593;BMP180;28026;48.562;14.440;2023-05-23T12:52:24;93532.00;;;27.80
41593;BMP180;28026;48.562;14.440;2023-05-23T12:54:55;93517.00;;;27.60
41593;BMP180;28026;48.562;14.440;2023-05-23T12:57:26;93523.00;;;27.50
41593;BMP180;28026;48.562;14.440;2023-05-23T12:59:57;93533.00;;;27.40
41593;BMP180;28026;48.562;14.440;2023-05-23T13:02:28;93539.00;;;27.30
41593;BMP180;28026;48.562;14.440;2023-05-23T13:04:59;93553.00;;;27.20
41593;BMP180;28026;48.562;14.440;2023-05-23T13:07:30;93561.00;;;27.10
41593;BMP180;28026;48.562;14.440;2023-05-23T13:10:01;93568.00;;;27.10
41593;BMP180;28026;48.562;14.440;2023-05-23T13:12:32;93567.00;;;27.00
41593;BMP180;28026;48.562;14.440;2023-05-23T13:15:04;93555.00;;;27.00
41593;BMP180;28026;48.562;14.440;2023-05-23T13:17:36;93541.00;;;27.00
41593;BMP180;28026;48.562;14.440;2023-05-23T13:20:07;93526.00;;;27.10
41593;BMP180;28026;48.562;14.440;2023-05-23T13:22:40;93533.00;;;27.10
41593;BMP180;28026;48.562;14.440;2023-05-23T13:25:11;93518.00;;;27.10
41593;BMP180;28026;48.562;14.440;2023-05-23T13:27:42;93523.00;;;27.20
41593;BMP180;28026;48.562;14.440;2023-05-23T13:30:13;93538.00;;;27.30
41593;BMP180;28026;48.562;14.440;2023-05-23T13:32:44;93548.00;;;27.30
41593;BMP180;28026;48.562;14.440;2023-05-23T13:35:16;93549.00;;;27.20
41593;BMP180;28026;48.562;14.440;2023-05-23T13:37:47;93548.00;;;26.90
41593;BMP180;28026;48.562;14.440;2023-05-23T13:40:20;93543.00;;;26.80
41593;BMP180;28026;48.562;14.440;2023-05-23T13:42:51;93541.00;;;26.80
41593;BMP180;28026;48.562;14.440;2023-05-23T13:45:22;93543.00;;;26.90
41593;BMP180;28026;48.562;14.440;2023-05-23T13:47:53;93536.00;;;27.10
41593;BMP180;28026;48.562;14.440;2023-05-23T13:50:24;93527.00;;;27.20
41593;BMP180;28026;48.562;14.440;2023-05-23T13:52:55;93545.00;;;27.30
41593;BMP180;28026;48.562;14.440;2023-05-23T13:55:26;93537.00;;;27.30
41593;BMP180;28026;48.562;14.440;2023-05-23T13:57:58;93541.00;;;27.30
41593;BMP180;28026;48.562;14.440;2023-05-23T14:00:28;93548.00;;;27.40
41593;BMP180;28026;48.562;14.440;2023-05-23T14:02:59;93537.00;;;27.50
41593;BMP180;28026;48.562;14.440;2023-05-23T14:05:30;93542.00;;;27.80
41593;BMP180;28026;48.562;14.440;2023-05-23T14:08:02;93547.00;;;27.90
41593;BMP180;28026;48.562;14.440;2023-05-23T14:10:33;93555.00;;;28.00
41593;BMP180;28026;48.562;14.440;2023-05-23T14:13:06;93563.00;;;28.10
41593;BMP180;28026;48.562;14.440;2023-05-23T14:15:37;93559.00;;;28.10
41593;BMP180;28026;48.562;14.440;2023-05-23T14:18:08;93556.00;;;27.90
41593;BMP180;28026;48.562;14.440;2023-05-23T14:20:39;93560.00;;;27.80
41593;BMP180;28026;48.562;14.440;2023-05-23T14:23:10;93560.00;;;27.50
41593;BMP180;28026;48.562;14.440;2023-05-23T14:25:41;93562.00;;;27.30
41593;BMP180;28026;48.562;14.440;2023-05-23T14:28:13;93566.00;;;27.20
41593;BMP180;28026;48.562;14.440;2023-05-23T14:30:43;93551.00;;;27.10
41593;BMP180;28026;48.562;14.440;2023-05-23T14:33:15;93569.00;;;27.00
41593;BMP180;28026;48.562;14.440;2023-05-23T14:35:46;93557.00;;;27.00
41593;BMP180;28026;48.562;14.440;2023-05-23T14:38:19;93566.00;;;27.00
41593;BMP180;28026;48.562;14.440;2023-05-23T14:40:50;93570.00;;;27.00